sensor_id;sensor_type;location;lat;lon;timestamp;pressure;altitude;pressure_sealevel;temperature;humidity
64189;BME280;50493;50.970;10.082;2023-07-28T00:00:33;98299.63;;;18.39;85.73
64189;BME280;50493;50.970;10.082;2023-07-28T00:02:59;98288.66;;;18.32;82.60
64189;BME280;50493;50.970;10.082;2023-07-28T00:05:25;98282.16;;;17.99;82.47
64189;BME280;50493;50.970;10.082;2023-07-28T00:07:50;98275.59;;;18.05;84.34
64189;BME280;50493;50.970;10.082;2023-07-28T00:10:16;98288.47;;;17.45;72.43
64189;BME280;50493;50.970;10.082;2023-07-28T00:12:42;98281.75;;;17.80;83.45
64189;BME280;50493;50.970;10.082;2023-07-28T00:15:08;98277.94;;;17.71;80.20
64189;BME280;50493;50.970;10.082;2023-07-28T00:17:34;98271.81;;;17.71;81.30
64189;BME280;50493;50.970;10.082;2023-07-28T00:19:59;98272.44;;;17.74;82.89
64189;BME280;50493;50.970;10.082;2023-07-28T00:22:25;98268.50;;;17.41;81.85
64189;BME280;50493;50.970;10.082;2023-07-28T00:24:50;98269.06;;;17.72;84.27
64189;BME280;50493;50.970;10.082;2023-07-28T00:27:16;98279.59;;;17.46;82.92
64189;BME280;50493;50.970;10.082;2023-07-28T00:29:42;98270.09;;;17.57;80.49
64189;BME280;50493;50.970;10.082;2023-07-28T00:32:08;98268.88;;;17.22;81.47
64189;BME280;50493;50.970;10.082;2023-07-28T00:34:33;98278.28;;;17.26;73.73
64189;BME280;50493;50.970;10.082;2023-07-28T00:36:59;98269.22;;;17.17;71.86
64189;BME280;50493;50.970;10.082;2023-07-28T00:39:24;98267.13;;;17.35;83.09
64189;BME280;50493;50.970;10.082;2023-07-28T00:41:50;98263.19;;;17.41;84.42
64189;BME280;50493;50.970;10.082;2023-07-28T00:44:15;98250.63;;;17.32;80.66
64189;BME280;50493;50.970;10.082;2023-07-28T00:46:43;98239.72;;;17.24;83.42
64189;BME280;50493;50.970;10.082;2023-07-28T00:49:09;98235.78;;;17.03;79.97
64189;BME280;50493;50.970;10.082;2023-07-28T00:51:35;98245.56;;;16.89;79.29
64189;BME280;50493;50.970;10.082;2023-07-28T00:54:01;98249.28;;;16.72;80.38
64189;BME280;50493;50.970;10.082;2023-07-28T00:56:27;98267.63;;;16.88;80.18
64189;BME280;50493;50.970;10.082;2023-07-28T00:58:53;98256.13;;;16.89;69.93
64189;BME280;50493;50.970;10.082;2023-07-28T01:01:18;98261.63;;;16.98;80.23
64189;BME280;50493;50.970;10.082;2023-07-28T01:03:45;98259.59;;;17.16;78.22
64189;BME280;50493;50.970;10.082;2023-07-28T01:06:15;98255.16;;;16.62;72.26
64189;BME280;50493;50.970;10.082;2023-07-28T01:08:48;98256.88;;;16.91;79.07
64189;BME280;50493;50.970;10.082;2023-07-28T01:11:15;98258.03;;;16.87;74.16
64189;BME280;50493;50.970;10.082;2023-07-28T01:13:40;98260.34;;;16.64;71.21
64189;BME280;50493;50.970;10.082;2023-07-28T01:16:06;98259.84;;;16.99;83.51
64189;BME280;50493;50.970;10.082;2023-07-28T01:18:33;98251.13;;;17.11;85.19
64189;BME280;50493;50.970;10.082;2023-07-28T01:21:01;98256.25;;;16.73;72.39
64189;BME280;50493;50.970;10.082;2023-07-28T01:23:37;98274.28;;;16.10;68.19
64189;BME280;50493;50.970;10.082;2023-07-28T01:26:08;98271.13;;;16.88;82.71
64189;BME280;50493;50.970;10.082;2023-07-28T01:28:35;98271.13;;;16.74;80.67
64189;BME280;50493;50.970;10.082;2023-07-28T01:31:02;98273.88;;;16.87;80.83
64189;BME280;50493;50.970;10.082;2023-07-28T01:33:28;98270.63;;;16.96;77.17
64189;BME280;50493;50.970;10.082;2023-07-28T01:35:53;98257.81;;;17.30;84.43
64189;BME280;50493;50.970;10.082;2023-07-28T01:38:19;98259.06;;;17.37;82.55
64189;BME280;50493;50.970;10.082;2023-07-28T01:40:44;98266.63;;;17.16;81.39
64189;BME280;50493;50.970;10.082;2023-07-28T01:43:10;98266.31;;;17.08;81.87
64189;BME280;50493;50.970;10.082;2023-07-28T01:45:36;98267.34;;;17.05;75.80
64189;BME280;50493;50.970;10.082;2023-07-28T01:48:02;98269.66;;;16.97;78.90
64189;BME280;50493;50.970;10.082;2023-07-28T01:50:28;98258.16;;;16.98;73.39
64189;BME280;50493;50.970;10.082;2023-07-28T01:52:53;98263.22;;;17.01;80.87
64189;BME280;50493;50.970;10.082;2023-07-28T01:55:18;98264.19;;;17.00;76.26
64189;BME280;50493;50.970;10.082;2023-07-28T01:57:50;98259.69;;;17.28;80.89
64189;BME280;50493;50.970;10.082;2023-07-28T02:00:17;98261.72;;;17.24;79.71
64189;BME280;50493;50.970;10.082;2023-07-28T02:02:44;98273.03;;;17.39;76.63
64189;BME280;50493;50.970;10.082;2023-07-28T02:05:09;98266.63;;;17.03;75.31
64189;BME280;50493;50.970;10.082;2023-07-28T02:07:34;98264.78;;;17.44;82.63
64189;BME280;50493;50.970;10.082;2023-07-28T02:10:00;98277.63;;;17.23;77.71
64189;BME280;50493;50.970;10.082;2023-07-28T02:12:25;98267.16;;;17.08;79.56
64189;BME280;50493;50.970;10.082;2023-07-28T02:14:51;98272.06;;;16.87;76.95
64189;BME280;50493;50.970;10.082;2023-07-28T02:17:16;98281.38;;;16.93;67.61
64189;BME280;50493;50.970;10.082;2023-07-28T02:19:43;98281.31;;;17.07;71.38
64189;BME280;50493;50.970;10.082;2023-07-28T02:22:08;98272.34;;;17.23;81.82
64189;BME280;50493;50.970;10.082;2023-07-28T02:24:34;98276.50;;;17.52;82.28
64189;BME280;50493;50.970;10.082;2023-07-28T02:26:59;98278.41;;;17.25;80.54
64189;BME280;50493;50.970;10.082;2023-07-28T02:29:25;98286.56;;;17.47;80.21
64189;BME280;50493;50.970;10.082;2023-07-28T02:31:50;98289.22;;;17.47;82.91
64189;BME280;50493;50.970;10.082;2023-07-28T02:34:15;98289.09;;;17.49;77.32
64189;BME280;50493;50.970;10.082;2023-07-28T02:36:42;98291.00;;;17.34;79.62
64189;BME280;50493;50.970;10.082;2023-07-28T02:39:07;98293.34;;;17.51;83.76
64189;BME280;50493;50.970;10.082;2023-07-28T02:41:33;98293.97;;;17.68;81.05
64189;BME280;50493;50.970;10.082;2023-07-28T02:43:58;98282.16;;;17.61;79.10
64189;BME280;50493;50.970;10.082;2023-07-28T02:46:24;98275.41;;;17.69;81.69
64189;BME280;50493;50.970;10.082;2023-07-28T02:48:50;98288.09;;;17.77;82.46
64189;BME280;50493;50.970;10.082;2023-07-28T02:51:16;98289.72;;;17.52;74.69
64189;BME280;50493;50.970;10.082;2023-07-28T02:53:42;98284.13;;;17.44;75.27
64189;BME280;50493;50.970;10.082;2023-07-28T02:56:08;98297.22;;;17.33;79.36
64189;BME280;50493;50.970;10.082;2023-07-28T02:58:33;98302.16;;;17.25;77.24
64189;BME280;50493;50.970;10.082;2023-07-28T03:00:58;98298.59;;;17.26;82.50
64189;BME280;50493;50.970;10.082;2023-07-28T03:03:24;98295.41;;;17.33;81.39
64189;BME280;50493;50.970;10.082;2023-07-28T03:05:51;98297.50;;;17.15;77.21
64189;BME280;50493;50.970;10.082;2023-07-28T03:08:17;98298.25;;;17.17;78.20
64189;BME280;50493;50.970;10.082;2023-07-28T03:10:44;98297.81;;;17.24;77.96
64189;BME280;50493;50.970;10.082;2023-07-28T03:13:09;98290.25;;;17.45;81.03
64189;BME280;50493;50.970;10.082;2023-07-28T03:15:35;98304.31;;;17.45;81.56
64189;BME280;50493;50.970;10.082;2023-07-28T03:18:00;98299.66;;;17.62;83.13
64189;BME280;50493;50.970;10.082;2023-07-28T03:20:26;98306.88;;;17.60;81.92
64189;BME280;50493;50.970;10.082;2023-07-28T03:22:51;98300.72;;;17.46;79.78
64189;BME280;50493;50.970;10.082;2023-07-28T03:25:16;98307.47;;;17.38;74.20
64189;BME280;50493;50.970;10.082;2023-07-28T03:27:43;98310.34;;;17.47;81.88
64189;BME280;50493;50.970;10.082;2023-07-28T03:30:09;98306.63;;;17.37;83.36
64189;BME280;50493;50.970;10.082;2023-07-28T03:32:35;98312.13;;;17.34;82.82
64189;BME280;50493;50.970;10.082;2023-07-28T03:35:01;98321.19;;;17.30;79.84
64189;BME280;50493;50.970;10.082;2023-07-28T03:37:26;98321.75;;;17.35;79.69
64189;BME280;50493;50.970;10.082;2023-07-28T03:39:52;98320.81;;;17.62;83.30
64189;BME280;50493;50.970;10.082;2023-07-28T03:42:17;98320.81;;;17.62;83.53
64189;BME280;50493;50.970;10.082;2023-07-28T03:44:44;98313.44;;;17.67;79.37
64189;BME280;50493;50.970;10.082;2023-07-28T03:47:10;98308.81;;;17.71;81.76
64189;BME280;50493;50.970;10.082;2023-07-28T03:49:35;98307.13;;;17.69;82.49
64189;BME280;50493;50.970;10.082;2023-07-28T03:52:00;98303.28;;;17.61;80.95
64189;BME280;50493;50.970;10.082;2023-07-28T03:54:26;98303.03;;;17.38;81.82
64189;BME280;50493;50.970;10.082;2023-07-28T03:56:51;98311.63;;;17.14;81.26
64189;BME280;50493;50.970;10.082;2023-07-28T03:59:41;98314.59;;;17.10;76.65
64189;BME280;50493;50.970;10.082;2023-07-28T04:02:07;98321.50;;;17.25;84.00
64189;BME280;50493;50.970;10.082;2023-07-28T04:04:34;98320.75;;;17.23;80.18
64189;BME280;50493;50.970;10.082;2023-07-28T04:07:00;98314.66;;;17.48;79.70
64189;BME280;50493;50.970;10.082;2023-07-28T04:09:26;98320.03;;;16.94;nan
64189;BME280;50493;50.970;10.082;2023-07-28T04:11:52;98326.16;;;17.22;81.53
64189;BME280;50493;50.970;10.082;2023-07-28T04:14:17;98327.03;;;17.35;79.50
64189;BME280;50493;50.970;10.082;2023-07-28T04:16:43;98335.13;;;17.32;76.32
64189;BME280;50493;50.970;10.082;2023-07-28T04:19:09;98322.09;;;17.56;77.69
64189;BME280;50493;50.970;10.082;2023-07-28T04:21:35;98321.03;;;17.59;75.14
64189;BME280;50493;50.970;10.082;2023-07-28T04:24:00;98324.72;;;17.56;77.06
64189;BME280;50493;50.970;10.082;2023-07-28T04:26:25;98323.78;;;17.57;76.38
64189;BME280;50493;50.970;10.082;2023-07-28T04:28:51;98322.72;;;17.60;71.94
64189;BME280;50493;50.970;10.082;2023-07-28T04:31:16;98322.56;;;17.76;74.87
64189;BME280;50493;50.970;10.082;2023-07-28T04:33:42;98319.50;;;17.82;71.25
64189;BME280;50493;50.970;10.082;2023-07-28T04:36:09;98313.84;;;17.61;74.54
64189;BME280;50493;50.970;10.082;2023-07-28T04:38:35;98325.47;;;17.58;71.15
64189;BME280;50493;50.970;10.082;2023-07-28T04:41:00;98320.63;;;17.65;77.34
64189;BME280;50493;50.970;10.082;2023-07-28T04:43:26;98323.00;;;17.82;75.14
64189;BME280;50493;50.970;10.082;2023-07-28T04:45:51;98331.25;;;17.91;78.05
64189;BME280;50493;50.970;10.082;2023-07-28T04:48:17;98330.06;;;17.95;76.52
64189;BME280;50493;50.970;10.082;2023-07-28T04:50:42;98326.16;;;18.00;76.14
64189;BME280;50493;50.970;10.082;2023-07-28T04:53:09;98331.84;;;17.68;66.93
64189;BME280;50493;50.970;10.082;2023-07-28T04:55:34;98332.59;;;17.83;73.67
64189;BME280;50493;50.970;10.082;2023-07-28T04:57:59;98325.28;;;17.74;74.46
64189;BME280;50493;50.970;10.082;2023-07-28T05:00:25;98328.41;;;17.53;74.13
64189;BME280;50493;50.970;10.082;2023-07-28T05:02:50;98327.44;;;17.69;71.13
64189;BME280;50493;50.970;10.082;2023-07-28T05:05:16;98337.16;;;17.81;74.87
64189;BME280;50493;50.970;10.082;2023-07-28T05:07:41;98338.00;;;17.69;76.08
64189;BME280;50493;50.970;10.082;2023-07-28T05:10:09;98344.53;;;17.76;75.07
64189;BME280;50493;50.970;10.082;2023-07-28T05:12:34;98351.31;;;18.06;75.73
64189;BME280;50493;50.970;10.082;2023-07-28T05:15:00;98356.19;;;17.99;76.42
64189;BME280;50493;50.970;10.082;2023-07-28T05:17:25;98358.84;;;18.12;75.20
64189;BME280;50493;50.970;10.082;2023-07-28T05:19:50;98360.19;;;17.79;73.66
64189;BME280;50493;50.970;10.082;2023-07-28T05:22:16;98361.25;;;17.90;72.27
64189;BME280;50493;50.970;10.082;2023-07-28T05:24:42;98356.38;;;18.09;76.20
64189;BME280;50493;50.970;10.082;2023-07-28T05:27:10;98369.72;;;17.69;62.74
64189;BME280;50493;50.970;10.082;2023-07-28T05:29:35;98363.91;;;17.90;72.25
64189;BME280;50493;50.970;10.082;2023-07-28T05:32:01;98365.69;;;17.76;62.54
64189;BME280;50493;50.970;10.082;2023-07-28T05:34:27;98365.59;;;17.91;68.64
64189;BME280;50493;50.970;10.082;2023-07-28T05:36:52;98370.50;;;17.57;70.70
64189;BME280;50493;50.970;10.082;2023-07-28T05:39:18;98363.81;;;18.04;71.74
64189;BME280;50493;50.970;10.082;2023-07-28T05:41:43;98375.63;;;18.24;74.87
64189;BME280;50493;50.970;10.082;2023-07-28T05:44:10;98367.81;;;18.23;73.82
64189;BME280;50493;50.970;10.082;2023-07-28T05:46:36;98373.28;;;18.45;73.20
64189;BME280;50493;50.970;10.082;2023-07-28T05:49:01;98372.69;;;18.29;67.46
64189;BME280;50493;50.970;10.082;2023-07-28T05:51:27;98371.59;;;18.44;68.91
64189;BME280;50493;50.970;10.082;2023-07-28T05:53:52;98370.34;;;18.63;71.41
64189;BME280;50493;50.970;10.082;2023-07-28T05:56:17;98368.50;;;18.76;70.66
64189;BME280;50493;50.970;10.082;2023-07-28T05:58:44;98375.84;;;18.60;71.26
64189;BME280;50493;50.970;10.082;2023-07-28T06:01:10;98381.75;;;18.50;71.32
64189;BME280;50493;50.970;10.082;2023-07-28T06:03:36;98382.31;;;18.56;64.39
64189;BME280;50493;50.970;10.082;2023-07-28T06:06:01;98387.38;;;18.59;70.04
64189;BME280;50493;50.970;10.082;2023-07-28T06:08:28;98388.44;;;18.69;72.58
64189;BME280;50493;50.970;10.082;2023-07-28T06:10:53;98391.69;;;18.85;71.29
64189;BME280;50493;50.970;10.082;2023-07-28T06:13:18;98387.31;;;18.84;71.23
64189;BME280;50493;50.970;10.082;2023-07-28T06:15:44;98386.00;;;19.03;70.37
64189;BME280;50493;50.970;10.082;2023-07-28T06:18:11;98386.22;;;19.00;70.97
64189;BME280;50493;50.970;10.082;2023-07-28T06:20:36;98388.25;;;18.96;71.14
64189;BME280;50493;50.970;10.082;2023-07-28T06:23:02;98390.22;;;18.81;69.05
64189;BME280;50493;50.970;10.082;2023-07-28T06:25:27;98394.25;;;18.48;67.58
64189;BME280;50493;50.970;10.082;2023-07-28T06:27:52;98392.34;;;18.76;70.22
64189;BME280;50493;50.970;10.082;2023-07-28T06:30:18;98391.03;;;18.82;63.78
64189;BME280;50493;50.970;10.082;2023-07-28T06:32:43;98388.00;;;19.12;69.65
64189;BME280;50493;50.970;10.082;2023-07-28T06:35:10;98391.59;;;19.11;70.53
64189;BME280;50493;50.970;10.082;2023-07-28T06:37:36;98396.31;;;18.95;67.76
64189;BME280;50493;50.970;10.082;2023-07-28T06:40:06;98399.06;;;19.17;70.50
64189;BME280;50493;50.970;10.082;2023-07-28T06:42:34;98394.75;;;19.16;70.30
64189;BME280;50493;50.970;10.082;2023-07-28T06:44:59;98401.16;;;19.38;69.66
64189;BME280;50493;50.970;10.082;2023-07-28T06:47:25;98402.09;;;19.37;69.64
64189;BME280;50493;50.970;10.082;2023-07-28T06:49:50;98393.50;;;19.58;68.52
64189;BME280;50493;50.970;10.082;2023-07-28T06:52:17;98406.22;;;19.41;69.54
64189;BME280;50493;50.970;10.082;2023-07-28T06:54:42;98403.25;;;19.33;69.02
64189;BME280;50493;50.970;10.082;2023-07-28T06:57:08;98404.19;;;19.45;68.20
64189;BME280;50493;50.970;10.082;2023-07-28T06:59:33;98403.03;;;19.12;69.33
64189;BME280;50493;50.970;10.082;2023-07-28T07:01:59;98407.41;;;19.37;68.65
64189;BME280;50493;50.970;10.082;2023-07-28T07:04:24;98419.00;;;19.47;69.74
64189;BME280;50493;50.970;10.082;2023-07-28T07:06:49;98408.34;;;19.36;64.85
64189;BME280;50493;50.970;10.082;2023-07-28T07:09:16;98416.50;;;19.81;66.65
64189;BME280;50493;50.970;10.082;2023-07-28T07:11:42;98411.59;;;19.88;66.67
64189;BME280;50493;50.970;10.082;2023-07-28T07:14:07;98412.09;;;19.69;67.86
64189;BME280;50493;50.970;10.082;2023-07-28T07:16:33;98406.63;;;19.95;66.32
64189;BME280;50493;50.970;10.082;2023-07-28T07:18:59;98401.56;;;19.92;67.21
64189;BME280;50493;50.970;10.082;2023-07-28T07:21:25;98417.56;;;19.79;64.39
64189;BME280;50493;50.970;10.082;2023-07-28T07:23:51;98409.88;;;19.87;68.13
64189;BME280;50493;50.970;10.082;2023-07-28T07:26:18;98401.28;;;19.72;65.32
64189;BME280;50493;50.970;10.082;2023-07-28T07:28:43;98412.34;;;19.66;68.33
64189;BME280;50493;50.970;10.082;2023-07-28T07:31:11;98412.22;;;19.67;63.02
64189;BME280;50493;50.970;10.082;2023-07-28T07:33:37;98416.41;;;19.59;69.03
64189;BME280;50493;50.970;10.082;2023-07-28T07:36:03;98414.47;;;19.12;69.12
64189;BME280;50493;50.970;10.082;2023-07-28T07:38:28;98423.34;;;18.74;59.44
64189;BME280;50493;50.970;10.082;2023-07-28T07:40:53;98420.34;;;19.29;63.85
64189;BME280;50493;50.970;10.082;2023-07-28T07:43:20;98422.00;;;19.30;70.02
64189;BME280;50493;50.970;10.082;2023-07-28T07:45:46;98424.69;;;18.93;69.90
64189;BME280;50493;50.970;10.082;2023-07-28T07:48:12;98421.19;;;19.29;64.55
64189;BME280;50493;50.970;10.082;2023-07-28T07:50:37;98429.00;;;19.44;60.99
64189;BME280;50493;50.970;10.082;2023-07-28T07:53:03;98432.56;;;19.56;67.89
64189;BME280;50493;50.970;10.082;2023-07-28T07:55:28;98429.44;;;19.62;67.23
64189;BME280;50493;50.970;10.082;2023-07-28T07:57:54;98430.97;;;19.88;67.65
64189;BME280;50493;50.970;10.082;2023-07-28T08:00:21;98430.47;;;19.83;60.59
64189;BME280;50493;50.970;10.082;2023-07-28T08:02:47;98433.25;;;19.82;67.27
64189;BME280;50493;50.970;10.082;2023-07-28T08:05:13;98433.28;;;19.58;56.36
64189;BME280;50493;50.970;10.082;2023-07-28T08:07:38;98435.00;;;19.70;68.15
64189;BME280;50493;50.970;10.082;2023-07-28T08:10:04;98432.13;;;20.09;65.97
64189;BME280;50493;50.970;10.082;2023-07-28T08:12:30;98432.84;;;19.40;57.68
64189;BME280;50493;50.970;10.082;2023-07-28T08:14:55;98437.22;;;18.65;71.16
64189;BME280;50493;50.970;10.082;2023-07-28T08:17:22;98430.56;;;19.70;66.93
64189;BME280;50493;50.970;10.082;2023-07-28T08:19:47;98444.22;;;19.77;68.71
64189;BME280;50493;50.970;10.082;2023-07-28T08:22:13;98445.31;;;19.86;67.06
64189;BME280;50493;50.970;10.082;2023-07-28T08:24:38;98451.81;;;20.17;67.21
64189;BME280;50493;50.970;10.082;2023-07-28T08:27:04;98453.50;;;20.18;67.05
64189;BME280;50493;50.970;10.082;2023-07-28T08:29:30;98453.66;;;20.04;68.50
64189;BME280;50493;50.970;10.082;2023-07-28T08:31:55;98458.63;;;20.33;65.20
64189;BME280;50493;50.970;10.082;2023-07-28T08:34:22;98455.41;;;20.16;65.76
64189;BME280;50493;50.970;10.082;2023-07-28T08:36:47;98457.53;;;20.47;65.73
64189;BME280;50493;50.970;10.082;2023-07-28T08:39:13;98464.53;;;20.59;64.94
64189;BME280;50493;50.970;10.082;2023-07-28T08:41:40;98468.38;;;20.32;65.45
64189;BME280;50493;50.970;10.082;2023-07-28T08:44:06;98468.28;;;20.57;65.47
64189;BME280;50493;50.970;10.082;2023-07-28T08:46:32;98469.72;;;20.49;62.88
64189;BME280;50493;50.970;10.082;2023-07-28T08:48:59;98466.13;;;20.50;63.62
64189;BME280;50493;50.970;10.082;2023-07-28T08:51:26;98474.06;;;20.62;64.74
64189;BME280;50493;50.970;10.082;2023-07-28T08:53:51;98477.09;;;20.80;65.10
64189;BME280;50493;50.970;10.082;2023-07-28T08:56:18;98476.38;;;20.66;65.24
64189;BME280;50493;50.970;10.082;2023-07-28T08:58:44;98486.50;;;20.73;64.17
64189;BME280;50493;50.970;10.082;2023-07-28T09:01:10;98478.94;;;20.91;64.38
64189;BME280;50493;50.970;10.082;2023-07-28T09:03:39;98482.53;;;21.12;64.72
64189;BME280;50493;50.970;10.082;2023-07-28T09:06:06;98482.06;;;21.18;62.66
64189;BME280;50493;50.970;10.082;2023-07-28T09:08:36;98486.34;;;21.53;63.20
64189;BME280;50493;50.970;10.082;2023-07-28T09:11:03;98482.03;;;21.41;60.64
64189;BME280;50493;50.970;10.082;2023-07-28T09:13:35;98476.00;;;20.82;62.94
64189;BME280;50493;50.970;10.082;2023-07-28T09:16:01;98476.50;;;21.21;61.71
64189;BME280;50493;50.970;10.082;2023-07-28T09:18:26;98480.38;;;21.17;55.51
64189;BME280;50493;50.970;10.082;2023-07-28T09:20:55;98482.78;;;21.09;61.09
64189;BME280;50493;50.970;10.082;2023-07-28T09:23:28;98484.91;;;21.38;62.78
64189;BME280;50493;50.970;10.082;2023-07-28T09:26:00;98491.41;;;21.57;60.79
64189;BME280;50493;50.970;10.082;2023-07-28T09:28:36;98490.94;;;21.63;59.72
64189;BME280;50493;50.970;10.082;2023-07-28T09:31:04;98496.50;;;21.48;61.66
64189;BME280;50493;50.970;10.082;2023-07-28T09:33:30;98493.66;;;21.61;59.89
64189;BME280;50493;50.970;10.082;2023-07-28T09:35:56;98494.50;;;21.73;60.03
64189;BME280;50493;50.970;10.082;2023-07-28T09:38:24;98491.47;;;20.66;55.26
64189;BME280;50493;50.970;10.082;2023-07-28T09:40:53;98502.25;;;20.98;63.11
64189;BME280;50493;50.970;10.082;2023-07-28T09:43:20;98500.91;;;21.04;64.48
64189;BME280;50493;50.970;10.082;2023-07-28T09:45:46;98490.75;;;20.75;56.93
64189;BME280;50493;50.970;10.082;2023-07-28T09:48:12;98495.09;;;21.33;62.32
64189;BME280;50493;50.970;10.082;2023-07-28T09:50:40;98491.72;;;21.19;62.76
64189;BME280;50493;50.970;10.082;2023-07-28T09:53:08;98490.28;;;21.15;55.91
64189;BME280;50493;50.970;10.082;2023-07-28T09:55:35;98493.09;;;21.46;56.43
64189;BME280;50493;50.970;10.082;2023-07-28T09:58:04;98499.41;;;21.45;60.54
64189;BME280;50493;50.970;10.082;2023-07-28T10:00:33;98499.63;;;21.65;60.33
64189;BME280;50493;50.970;10.082;2023-07-28T10:02:58;98500.09;;;21.70;60.31
64189;BME280;50493;50.970;10.082;2023-07-28T10:05:25;98497.34;;;21.93;59.24
64189;BME280;50493;50.970;10.082;2023-07-28T10:07:51;98505.34;;;21.93;59.06
64189;BME280;50493;50.970;10.082;2023-07-28T10:10:17;98504.50;;;22.13;59.61
64189;BME280;50493;50.970;10.082;2023-07-28T10:12:46;98503.22;;;21.75;54.74
64189;BME280;50493;50.970;10.082;2023-07-28T10:15:14;98515.59;;;21.42;55.33
64189;BME280;50493;50.970;10.082;2023-07-28T10:17:45;98512.03;;;21.09;60.27
64189;BME280;50493;50.970;10.082;2023-07-28T10:20:27;98522.78;;;21.08;57.98
64189;BME280;50493;50.970;10.082;2023-07-28T10:22:53;98523.69;;;21.52;59.75
64189;BME280;50493;50.970;10.082;2023-07-28T10:25:22;98520.09;;;21.30;61.38
64189;BME280;50493;50.970;10.082;2023-07-28T10:27:47;98520.91;;;20.74;58.43
64189;BME280;50493;50.970;10.082;2023-07-28T10:30:14;98521.41;;;20.68;60.19
64189;BME280;50493;50.970;10.082;2023-07-28T10:32:40;98524.09;;;21.02;62.84
64189;BME280;50493;50.970;10.082;2023-07-28T10:35:09;98522.16;;;21.15;62.05
64189;BME280;50493;50.970;10.082;2023-07-28T10:37:35;98529.63;;;20.76;59.29
64189;BME280;50493;50.970;10.082;2023-07-28T10:40:23;98529.22;;;21.49;60.95
64189;BME280;50493;50.970;10.082;2023-07-28T10:42:49;98526.56;;;21.60;61.02
64189;BME280;50493;50.970;10.082;2023-07-28T10:45:15;98534.50;;;21.83;61.97
64189;BME280;50493;50.970;10.082;2023-07-28T10:47:41;98531.81;;;21.16;57.10
64189;BME280;50493;50.970;10.082;2023-07-28T10:50:09;98520.75;;;21.66;57.25
64189;BME280;50493;50.970;10.082;2023-07-28T10:52:39;98521.97;;;22.06;55.44
64189;BME280;50493;50.970;10.082;2023-07-28T10:55:04;98525.63;;;21.94;58.81
64189;BME280;50493;50.970;10.082;2023-07-28T10:57:30;98528.25;;;21.73;56.43
64189;BME280;50493;50.970;10.082;2023-07-28T10:59:59;98521.84;;;21.75;55.62
64189;BME280;50493;50.970;10.082;2023-07-28T11:02:26;98523.94;;;21.37;60.27
64189;BME280;50493;50.970;10.082;2023-07-28T11:04:52;98520.44;;;21.26;58.11
64189;BME280;50493;50.970;10.082;2023-07-28T11:07:20;98526.97;;;21.44;61.70
64189;BME280;50493;50.970;10.082;2023-07-28T11:09:45;98526.84;;;21.89;60.08
64189;BME280;50493;50.970;10.082;2023-07-28T11:12:11;98521.56;;;22.43;57.68
64189;BME280;50493;50.970;10.082;2023-07-28T11:14:36;98517.88;;;22.34;58.99
64189;BME280;50493;50.970;10.082;2023-07-28T11:17:02;98510.41;;;22.49;60.58
64189;BME280;50493;50.970;10.082;2023-07-28T11:19:27;98515.72;;;22.49;59.01
64189;BME280;50493;50.970;10.082;2023-07-28T11:21:54;98516.22;;;22.43;55.34
64189;BME280;50493;50.970;10.082;2023-07-28T11:24:21;98517.97;;;22.54;55.25
64189;BME280;50493;50.970;10.082;2023-07-28T11:26:47;98515.25;;;22.44;56.99
64189;BME280;50493;50.970;10.082;2023-07-28T11:29:14;98513.63;;;22.32;55.63
64189;BME280;50493;50.970;10.082;2023-07-28T11:31:41;98519.28;;;22.91;59.54
64189;BME280;50493;50.970;10.082;2023-07-28T11:34:12;98520.97;;;22.39;55.67
64189;BME280;50493;50.970;10.082;2023-07-28T11:36:38;98518.13;;;22.83;56.50
64189;BME280;50493;50.970;10.082;2023-07-28T11:39:03;98514.91;;;22.59;55.02
64189;BME280;50493;50.970;10.082;2023-07-28T11:41:32;98522.97;;;22.47;56.25
64189;BME280;50493;50.970;10.082;2023-07-28T11:43:59;98519.41;;;21.83;57.86
64189;BME280;50493;50.970;10.082;2023-07-28T11:46:32;98517.16;;;21.45;58.81
64189;BME280;50493;50.970;10.082;2023-07-28T11:49:06;98514.19;;;22.14;59.05
64189;BME280;50493;50.970;10.082;2023-07-28T11:51:32;98520.78;;;22.52;56.37
64189;BME280;50493;50.970;10.082;2023-07-28T11:53:57;98522.28;;;22.45;56.63
64189;BME280;50493;50.970;10.082;2023-07-28T11:56:24;98514.06;;;22.79;57.45
64189;BME280;50493;50.970;10.082;2023-07-28T11:58:53;98519.53;;;22.35;56.13
64189;BME280;50493;50.970;10.082;2023-07-28T12:01:19;98521.91;;;22.17;56.87
64189;BME280;50493;50.970;10.082;2023-07-28T12:03:44;98531.53;;;21.65;58.87
64189;BME280;50493;50.970;10.082;2023-07-28T12:06:10;98524.78;;;21.38;59.64
64189;BME280;50493;50.970;10.082;2023-07-28T12:08:36;98529.16;;;21.28;59.33
64189;BME280;50493;50.970;10.082;2023-07-28T12:11:01;98534.59;;;21.26;60.50
64189;BME280;50493;50.970;10.082;2023-07-28T12:13:27;98527.91;;;21.43;60.55
64189;BME280;50493;50.970;10.082;2023-07-28T12:15:53;98525.59;;;22.26;60.77
64189;BME280;50493;50.970;10.082;2023-07-28T12:18:19;98518.28;;;23.13;55.15
64189;BME280;50493;50.970;10.082;2023-07-28T12:20:46;98520.09;;;22.81;55.61
64189;BME280;50493;50.970;10.082;2023-07-28T12:23:13;98521.41;;;22.45;57.24
64189;BME280;50493;50.970;10.082;2023-07-28T12:25:38;98525.78;;;22.13;57.82
64189;BME280;50493;50.970;10.082;2023-07-28T12:28:05;98516.44;;;22.19;56.74
64189;BME280;50493;50.970;10.082;2023-07-28T12:30:30;98516.41;;;22.51;57.71
64189;BME280;50493;50.970;10.082;2023-07-28T12:32:57;98525.91;;;23.27;58.28
64189;BME280;50493;50.970;10.082;2023-07-28T12:35:23;98513.94;;;24.21;54.29
64189;BME280;50493;50.970;10.082;2023-07-28T12:37:49;98520.28;;;24.00;55.16
64189;BME280;50493;50.970;10.082;2023-07-28T12:40:15;98521.53;;;24.45;51.88
64189;BME280;50493;50.970;10.082;2023-07-28T12:42:40;98515.25;;;24.36;51.15
64189;BME280;50493;50.970;10.082;2023-07-28T12:45:06;98511.38;;;23.61;53.69